Time;durP1;ratioP1;P1;durP2;ratioP2;P2;SDS_P1;SDS_P2;PMS_P1;PMS_P2;Temp;Humidity;BMP_temperature;BMP_pressure;BME280_temperature;BME280_humidity;BME280_pressure;Samples;Min_cycle;Max_cycle;Signal;HPM_P1;HPM_P2
2023/10/31 00:01:58;;;;;;;5.77;0.70;;;11.80;99.90;;;;;;5047568;28;20448;-69
2023/10/31 00:04:26;;;;;;;6.93;0.97;;;11.80;99.90;;;;;;5047609;28;21009;-69
2023/10/31 00:06:54;;;;;;;5.87;0.97;;;11.80;99.90;;;;;;5044411;28;20455;-69
2023/10/31 00:09:22;;;;;;;6.30;0.80;;;11.80;99.90;;;;;;5044794;28;20481;-69
2023/10/31 00:11:50;;;;;;;5.70;0.70;;;11.80;99.90;;;;;;5041209;28;20501;-70
2023/10/31 00:14:18;;;;;;;5.80;0.60;;;11.80;99.90;;;;;;5045017;28;20454;-69
2023/10/31 00:16:59;;;;;;;6.47;0.80;;;11.70;99.90;;;;;;5046457;28;20471;-69
2023/10/31 00:19:27;;;;;;;6.27;0.70;;;11.80;99.90;;;;;;5045567;28;20980;-69
2023/10/31 00:21:55;;;;;;;5.60;0.70;;;11.80;99.90;;;;;;5045666;28;20473;-70
2023/10/31 00:24:23;;;;;;;6.63;0.70;;;11.80;99.90;;;;;;5042743;28;20867;-69
2023/10/31 00:26:52;;;;;;;6.30;0.70;;;11.80;99.90;;;;;;5045961;28;20443;-69
2023/10/31 00:29:20;;;;;;;5.77;0.80;;;11.80;99.90;;;;;;5038717;28;20950;-69
2023/10/31 00:31:48;;;;;;;6.67;0.80;;;11.80;99.90;;;;;;5039577;28;20447;-71
2023/10/31 00:34:18;;;;;;;7.50;0.80;;;11.80;99.90;;;;;;5046102;28;20471;-70
2023/10/31 00:36:46;;;;;;;7.07;0.70;;;11.70;99.90;;;;;;5046661;28;21053;-71
2023/10/31 00:39:14;;;;;;;5.80;0.70;;;11.80;99.90;;;;;;5044490;28;20483;-72
2023/10/31 00:41:46;;;;;;;6.57;0.60;;;11.70;99.90;;;;;;5044599;28;20442;-69
2023/10/31 00:44:14;;;;;;;5.50;0.50;;;11.60;99.90;;;;;;5040932;28;20463;-70
2023/10/31 00:46:43;;;;;;;6.00;0.90;;;11.60;99.90;;;;;;5044502;28;20436;-69
2023/10/31 00:49:11;;;;;;;6.80;0.90;;;11.60;99.90;;;;;;5045589;28;20480;-69
2023/10/31 00:51:40;;;;;;;5.67;0.77;;;11.70;99.90;;;;;;5044004;28;20513;-70
2023/10/31 00:54:08;;;;;;;5.70;0.50;;;11.70;99.90;;;;;;5036543;28;20531;-69
2023/10/31 00:56:36;;;;;;;5.87;0.63;;;11.70;99.90;;;;;;5046151;28;20442;-69
2023/10/31 00:59:04;;;;;;;5.90;0.70;;;11.70;99.90;;;;;;5042773;28;20971;-70
2023/10/31 01:01:33;;;;;;;5.70;0.50;;;11.60;99.90;;;;;;5043286;28;20458;-69
2023/10/31 01:04:01;;;;;;;6.80;0.60;;;11.60;99.90;;;;;;5044813;28;20456;-69
2023/10/31 01:06:28;;;;;;;6.10;0.63;;;11.60;99.90;;;;;;5042211;28;20462;-70
2023/10/31 01:08:58;;;;;;;6.93;0.80;;;11.60;99.90;;;;;;5041667;28;20452;-70
2023/10/31 01:11:26;;;;;;;7.33;0.70;;;11.50;99.90;;;;;;5045591;28;20539;-70
2023/10/31 01:13:54;;;;;;;6.63;0.50;;;11.50;99.90;;;;;;5043239;28;20462;-69
2023/10/31 01:16:22;;;;;;;6.03;0.50;;;11.40;99.90;;;;;;5043690;28;20524;-71
2023/10/31 01:18:50;;;;;;;7.70;0.77;;;11.30;99.90;;;;;;5038189;28;20566;-69
2023/10/31 01:21:18;;;;;;;7.77;1.03;;;11.10;99.90;;;;;;5040247;28;20436;-69
2023/10/31 01:23:45;;;;;;;5.80;0.63;;;11.00;99.90;;;;;;5044556;28;20440;-70
2023/10/31 01:26:15;;;;;;;5.90;0.70;;;10.90;99.90;;;;;;5044572;28;20556;-68
2023/10/31 01:28:43;;;;;;;5.70;0.60;;;10.90;99.90;;;;;;5044675;28;20447;-68
2023/10/31 01:31:11;;;;;;;5.60;0.40;;;10.80;99.90;;;;;;5043045;28;20483;-67
2023/10/31 01:33:39;;;;;;;7.23;0.80;;;10.80;99.90;;;;;;5044521;28;20538;-67
2023/10/31 01:36:08;;;;;;;6.13;0.60;;;10.70;99.90;;;;;;5048029;28;20475;-68
2023/10/31 01:38:36;;;;;;;6.30;1.03;;;10.60;99.90;;;;;;5046548;28;20528;-70
2023/10/31 01:41:04;;;;;;;7.07;0.60;;;10.50;99.90;;;;;;5047119;28;21045;-69
2023/10/31 01:43:35;;;;;;;5.80;0.70;;;10.50;99.90;;;;;;5045866;28;20447;-69
2023/10/31 01:46:04;;;;;;;6.20;0.90;;;10.40;99.90;;;;;;5045766;28;20538;-71
2023/10/31 01:48:34;;;;;;;5.60;0.47;;;10.30;99.90;;;;;;5048007;28;20494;-68
2023/10/31 01:51:04;;;;;;;7.60;0.73;;;10.20;99.90;;;;;;5048394;28;21028;-69
2023/10/31 01:53:34;;;;;;;6.50;0.87;;;10.20;99.90;;;;;;5045436;28;20463;-68
2023/10/31 01:56:04;;;;;;;5.87;0.60;;;10.20;99.90;;;;;;5046281;28;20450;-70
2023/10/31 01:58:35;;;;;;;6.10;0.80;;;10.20;99.90;;;;;;5047453;28;20451;-68
2023/10/31 02:01:05;;;;;;;5.90;0.80;;;10.20;99.90;;;;;;5050719;28;20466;-68
2023/10/31 02:03:34;;;;;;;6.77;0.80;;;10.30;99.90;;;;;;5046357;28;20460;-68
2023/10/31 02:06:02;;;;;;;10.33;1.10;;;10.30;99.90;;;;;;5046779;28;20544;-68
2023/10/31 02:08:30;;;;;;;6.60;0.67;;;10.40;99.90;;;;;;5046253;28;20506;-68
2023/10/31 02:10:58;;;;;;;5.80;0.60;;;10.40;99.90;;;;;;5046252;28;20621;-68
2023/10/31 02:13:26;;;;;;;5.93;0.83;;;10.40;99.90;;;;;;5045852;28;20443;-69
2023/10/31 02:15:56;;;;;;;5.67;0.50;;;10.50;99.90;;;;;;5046112;28;20471;-69
2023/10/31 02:18:24;;;;;;;5.93;0.73;;;10.60;99.90;;;;;;5043215;28;20611;-69
2023/10/31 02:20:51;;;;;;;5.63;0.83;;;10.60;99.90;;;;;;5042915;28;20447;-68
2023/10/31 02:23:21;;;;;;;5.80;0.70;;;10.50;99.90;;;;;;5045565;28;20447;-69
2023/10/31 02:25:49;;;;;;;6.43;0.60;;;10.50;99.90;;;;;;5048526;28;20542;-70
2023/10/31 02:28:17;;;;;;;5.60;0.60;;;10.50;99.90;;;;;;5050318;28;20453;-69
2023/10/31 02:30:45;;;;;;;6.67;1.00;;;10.50;99.90;;;;;;5047804;28;20619;-68
2023/10/31 02:33:12;;;;;;;6.30;0.73;;;10.50;99.90;;;;;;5041044;28;20440;-68
2023/10/31 02:35:40;;;;;;;6.63;0.73;;;10.50;99.90;;;;;;5049936;28;20834;-68
2023/10/31 02:38:08;;;;;;;6.10;0.73;;;10.50;99.90;;;;;;5050292;28;20496;-68
2023/10/31 02:40:38;;;;;;;6.43;0.63;;;10.40;99.90;;;;;;5049765;28;21169;-68
2023/10/31 02:43:06;;;;;;;8.27;1.23;;;10.40;99.90;;;;;;5045517;28;20450;-68
2023/10/31 02:45:34;;;;;;;6.50;0.70;;;10.40;99.90;;;;;;5049688;28;20455;-68
2023/10/31 02:48:01;;;;;;;5.87;0.87;;;10.30;99.90;;;;;;5051545;28;20446;-67
2023/10/31 02:50:29;;;;;;;5.77;0.73;;;10.30;99.90;;;;;;5051182;28;20505;-68
2023/10/31 02:52:57;;;;;;;5.90;0.70;;;10.30;99.90;;;;;;5050837;28;20459;-68
2023/10/31 02:55:25;;;;;;;5.70;0.80;;;10.30;99.90;;;;;;5050349;28;20483;-67
2023/10/31 02:57:55;;;;;;;6.13;0.80;;;10.30;99.90;;;;;;5050551;28;20612;-67
2023/10/31 03:00:23;;;;;;;5.87;0.63;;;10.20;99.90;;;;;;5051149;28;20443;-67
2023/10/31 03:02:50;;;;;;;9.50;0.90;;;10.20;99.90;;;;;;5049654;28;20444;-67
2023/10/31 03:05:19;;;;;;;6.00;0.70;;;10.20;99.90;;;;;;5049662;28;20933;-67
2023/10/31 03:07:47;;;;;;;6.83;0.87;;;10.10;99.90;;;;;;5051070;28;20506;-66
2023/10/31 03:10:15;;;;;;;7.03;1.03;;;10.00;99.90;;;;;;5050567;28;20555;-68
2023/10/31 03:12:43;;;;;;;10.43;1.40;;;9.90;99.90;;;;;;5044331;28;20988;-68
2023/10/31 03:15:12;;;;;;;7.00;1.47;;;9.90;99.90;;;;;;5050421;28;20496;-67
2023/10/31 03:17:40;;;;;;;5.80;0.70;;;9.80;99.90;;;;;;5048375;28;20458;-68
2023/10/31 03:20:09;;;;;;;6.10;0.90;;;9.80;99.90;;;;;;5050304;28;20462;-68
2023/10/31 03:22:37;;;;;;;7.40;1.00;;;9.90;99.90;;;;;;5050204;28;20439;-67
2023/10/31 03:25:07;;;;;;;5.87;0.63;;;10.00;99.90;;;;;;5047839;28;20475;-67
2023/10/31 03:27:35;;;;;;;6.20;0.70;;;10.10;99.90;;;;;;5048641;28;20436;-68
2023/10/31 03:30:03;;;;;;;6.00;0.80;;;10.10;99.90;;;;;;5048676;28;20436;-68
2023/10/31 03:32:32;;;;;;;5.67;0.60;;;10.10;99.90;;;;;;5050152;28;20573;-68
2023/10/31 03:35:00;;;;;;;6.63;0.80;;;10.10;99.90;;;;;;5049290;28;21122;-68
2023/10/31 03:37:28;;;;;;;5.77;0.80;;;10.00;99.90;;;;;;5049805;28;20451;-68
2023/10/31 03:39:56;;;;;;;5.50;0.50;;;10.10;99.90;;;;;;5049211;28;20451;-67
2023/10/31 03:42:23;;;;;;;7.20;0.73;;;10.00;99.90;;;;;;5049192;28;20557;-67
2023/10/31 03:44:51;;;;;;;6.40;0.60;;;10.10;99.90;;;;;;5046252;28;20501;-67
2023/10/31 03:47:19;;;;;;;6.53;0.80;;;10.10;99.90;;;;;;5049612;28;20440;-67
2023/10/31 03:49:49;;;;;;;6.30;0.80;;;10.10;99.90;;;;;;5049698;28;20450;-67
2023/10/31 03:52:16;;;;;;;7.27;1.00;;;10.10;99.90;;;;;;5041617;28;20997;-68
2023/10/31 03:54:44;;;;;;;6.20;0.80;;;10.20;99.90;;;;;;5046019;28;20474;-68
2023/10/31 03:57:12;;;;;;;7.30;0.70;;;10.20;99.90;;;;;;5047923;28;20435;-67
2023/10/31 03:59:40;;;;;;;6.50;0.73;;;10.20;99.90;;;;;;5047954;28;20446;-68
2023/10/31 04:02:08;;;;;;;8.47;1.97;;;10.30;99.90;;;;;;5048871;28;20442;-68
2023/10/31 04:04:36;;;;;;;6.97;0.83;;;10.30;99.90;;;;;;5046669;28;20532;-67
2023/10/31 04:07:05;;;;;;;5.67;0.67;;;10.20;99.90;;;;;;5047281;28;20458;-68
2023/10/31 04:09:33;;;;;;;5.70;0.50;;;10.20;99.90;;;;;;5047739;28;21041;-67
2023/10/31 04:12:01;;;;;;;6.67;1.07;;;10.10;99.90;;;;;;5047418;28;20507;-68
2023/10/31 04:14:29;;;;;;;6.07;0.77;;;10.10;99.90;;;;;;5046839;28;21312;-67
2023/10/31 04:16:57;;;;;;;6.43;1.00;;;10.00;99.90;;;;;;5047757;28;20467;-68
2023/10/31 04:19:25;;;;;;;7.13;0.90;;;9.90;99.90;;;;;;5047857;28;20452;-68
2023/10/31 04:21:54;;;;;;;6.30;0.77;;;9.90;99.90;;;;;;5039216;28;20506;-68
2023/10/31 04:24:24;;;;;;;8.10;1.20;;;10.00;99.90;;;;;;5046866;28;20464;-68
2023/10/31 04:26:52;;;;;;;8.10;0.70;;;10.10;99.90;;;;;;5047901;28;20450;-68
2023/10/31 04:29:19;;;;;;;6.80;0.73;;;10.10;99.90;;;;;;5046881;28;20457;-68
2023/10/31 04:31:47;;;;;;;5.80;0.80;;;10.20;99.90;;;;;;5047442;28;20492;-67
2023/10/31 04:34:15;;;;;;;5.67;0.87;;;10.30;99.90;;;;;;5046468;28;20504;-68
2023/10/31 04:36:43;;;;;;;5.70;0.70;;;10.40;99.90;;;;;;5047085;28;20964;-68
2023/10/31 04:39:11;;;;;;;6.27;0.93;;;10.30;99.90;;;;;;5045675;28;20446;-68
2023/10/31 04:41:40;;;;;;;5.70;0.90;;;10.30;99.90;;;;;;5047496;28;20557;-68
2023/10/31 04:44:08;;;;;;;7.33;0.80;;;10.20;99.90;;;;;;5046675;28;20815;-68
2023/10/31 04:46:37;;;;;;;6.23;0.77;;;10.30;99.90;;;;;;5047106;28;20973;-67
2023/10/31 04:49:05;;;;;;;5.57;0.63;;;10.30;99.90;;;;;;5046154;28;21023;-68
2023/10/31 04:51:34;;;;;;;6.17;1.10;;;10.30;99.90;;;;;;5047283;28;20443;-67
2023/10/31 04:54:02;;;;;;;5.97;0.80;;;10.30;99.90;;;;;;5042127;28;20508;-68
2023/10/31 04:56:31;;;;;;;6.40;0.90;;;10.40;99.90;;;;;;5044602;28;20496;-67
2023/10/31 04:59:00;;;;;;;7.23;1.27;;;10.30;99.90;;;;;;5046749;28;20459;-67
2023/10/31 05:01:28;;;;;;;5.90;0.73;;;10.20;99.90;;;;;;5046112;28;20456;-67
2023/10/31 05:03:56;;;;;;;5.70;0.60;;;10.20;99.90;;;;;;5045869;28;20441;-67
2023/10/31 05:06:37;;;;;;;5.97;0.60;;;10.20;99.90;;;;;;5043284;28;21059;-68
2023/10/31 05:09:06;;;;;;;5.90;0.60;;;10.10;99.90;;;;;;5048508;28;20456;-68
2023/10/31 05:11:34;;;;;;;5.90;0.80;;;10.10;99.90;;;;;;5047840;28;20466;-68
2023/10/31 05:14:04;;;;;;;5.90;0.70;;;10.10;99.90;;;;;;5047361;28;20520;-67
2023/10/31 05:16:32;;;;;;;6.47;0.73;;;10.00;99.90;;;;;;5048438;28;20805;-68
2023/10/31 05:19:04;;;;;;;6.43;0.70;;;10.00;99.90;;;;;;5049997;28;21271;-68
2023/10/31 05:21:32;;;;;;;6.67;0.50;;;10.00;99.90;;;;;;5047871;28;20441;-67
2023/10/31 05:24:00;;;;;;;6.10;0.63;;;10.00;99.90;;;;;;5045561;28;20938;-67
2023/10/31 05:26:29;;;;;;;5.67;0.50;;;10.00;99.90;;;;;;5046259;28;20564;-68
2023/10/31 05:28:58;;;;;;;6.00;0.63;;;9.90;99.90;;;;;;5048115;28;20521;-67
2023/10/31 05:31:27;;;;;;;5.60;0.50;;;9.90;99.90;;;;;;5045551;28;21201;-67
2023/10/31 05:33:55;;;;;;;6.80;0.90;;;9.80;99.90;;;;;;5046241;28;20473;-67
2023/10/31 05:36:27;;;;;;;5.80;0.70;;;9.80;99.90;;;;;;5048043;28;20504;-67
2023/10/31 05:38:55;;;;;;;5.93;0.90;;;9.80;99.90;;;;;;5048162;28;21085;-67
2023/10/31 05:41:23;;;;;;;6.27;0.73;;;9.80;99.90;;;;;;5048306;28;20450;-67
2023/10/31 05:43:51;;;;;;;7.20;1.40;;;9.80;99.90;;;;;;5045609;28;20480;-67
2023/10/31 05:46:19;;;;;;;5.80;0.60;;;9.80;99.90;;;;;;5047775;28;20543;-68
2023/10/31 05:48:50;;;;;;;8.10;0.77;;;9.70;99.90;;;;;;5045985;28;20469;-67
2023/10/31 05:51:19;;;;;;;6.57;0.90;;;9.70;99.90;;;;;;5040006;28;20446;-68
2023/10/31 05:53:49;;;;;;;6.00;0.80;;;9.70;99.90;;;;;;5047485;28;20488;-67
2023/10/31 05:56:17;;;;;;;6.00;0.60;;;9.80;99.90;;;;;;5048227;28;20450;-68
2023/10/31 05:58:46;;;;;;;6.30;1.00;;;9.70;99.90;;;;;;5049142;28;20462;-68
2023/10/31 06:01:14;;;;;;;6.60;0.77;;;9.60;99.90;;;;;;5051740;28;20460;-68
2023/10/31 06:03:44;;;;;;;6.47;0.80;;;9.70;99.90;;;;;;5051758;28;20453;-68
2023/10/31 06:06:13;;;;;;;7.60;0.70;;;9.70;99.90;;;;;;5051915;28;20440;-68
2023/10/31 06:08:42;;;;;;;7.80;0.70;;;9.70;99.90;;;;;;5051972;28;20482;-68
2023/10/31 06:11:12;;;;;;;6.50;0.70;;;9.70;99.90;;;;;;5046162;28;20456;-69
2023/10/31 06:13:40;;;;;;;5.70;0.50;;;9.60;99.90;;;;;;5048044;28;20529;-67
2023/10/31 06:16:09;;;;;;;5.70;0.60;;;9.60;99.90;;;;;;5051899;28;20443;-67
2023/10/31 06:18:38;;;;;;;6.80;0.90;;;9.60;99.90;;;;;;5052149;28;20462;-68
2023/10/31 06:21:07;;;;;;;5.77;0.50;;;9.70;99.90;;;;;;5059855;28;20439;-68
2023/10/31 06:23:37;;;;;;;6.10;0.70;;;9.60;99.90;;;;;;5051364;28;20451;-69
2023/10/31 06:26:05;;;;;;;6.87;0.60;;;9.60;99.90;;;;;;5045410;28;20457;-68
2023/10/31 06:28:35;;;;;;;5.80;0.60;;;9.60;99.90;;;;;;5051837;28;20448;-68
2023/10/31 06:31:07;;;;;;;5.70;0.70;;;9.50;99.90;;;;;;5051681;28;20476;-68
2023/10/31 06:33:35;;;;;;;6.70;0.80;;;9.40;99.90;;;;;;5050865;28;20489;-67
2023/10/31 06:36:03;;;;;;;6.20;0.90;;;9.50;99.90;;;;;;5051495;28;20854;-67
2023/10/31 06:38:31;;;;;;;5.80;0.67;;;9.50;99.90;;;;;;5047615;28;20535;-68
2023/10/31 06:41:00;;;;;;;5.80;0.73;;;9.70;99.90;;;;;;5048861;28;20451;-68
2023/10/31 06:43:28;;;;;;;5.90;0.57;;;9.70;99.90;;;;;;5050558;28;20531;-69
2023/10/31 06:46:02;;;;;;;7.60;0.80;;;9.80;99.90;;;;;;5051091;28;20476;-68
2023/10/31 06:48:30;;;;;;;7.60;1.73;;;9.80;99.90;;;;;;5051279;28;20885;-68
2023/10/31 06:50:58;;;;;;;6.67;0.80;;;9.90;99.90;;;;;;5050821;28;20521;-69
2023/10/31 06:53:26;;;;;;;5.60;0.60;;;10.00;99.90;;;;;;5043206;28;20578;-68
2023/10/31 06:55:54;;;;;;;5.73;0.70;;;10.00;99.90;;;;;;5051431;28;20467;-69
2023/10/31 06:58:24;;;;;;;6.47;0.70;;;10.00;99.90;;;;;;5050534;28;20438;-69
2023/10/31 07:00:51;;;;;;;5.50;0.50;;;10.20;99.90;;;;;;5049250;28;20436;-68
2023/10/31 07:03:19;;;;;;;5.73;0.70;;;10.20;99.90;;;;;;5069886;28;20439;-67
2023/10/31 07:05:47;;;;;;;6.10;0.60;;;10.20;99.90;;;;;;5055264;28;20495;-68
2023/10/31 07:08:15;;;;;;;7.77;0.80;;;10.30;99.90;;;;;;5042724;28;20454;-69
2023/10/31 07:10:43;;;;;;;5.80;0.67;;;10.40;99.90;;;;;;5050411;28;20474;-68
2023/10/31 07:13:12;;;;;;;6.67;0.60;;;10.50;99.90;;;;;;5050074;28;20867;-69
2023/10/31 07:15:41;;;;;;;6.83;0.70;;;10.50;99.90;;;;;;5050246;28;20473;-69
2023/10/31 07:18:09;;;;;;;5.70;0.70;;;10.50;99.90;;;;;;5050263;28;20570;-69
2023/10/31 07:20:37;;;;;;;6.03;0.67;;;10.60;99.90;;;;;;5050485;28;20985;-67
2023/10/31 07:23:05;;;;;;;5.80;0.70;;;10.70;99.90;;;;;;5050476;28;20472;-68
2023/10/31 07:25:33;;;;;;;5.93;0.70;;;10.70;99.90;;;;;;5050229;28;20461;-67
2023/10/31 07:28:01;;;;;;;6.00;0.90;;;10.70;99.90;;;;;;5050634;28;20448;-67
2023/10/31 07:30:29;;;;;;;5.90;0.60;;;10.80;99.90;;;;;;5047189;28;20447;-66
2023/10/31 07:32:59;;;;;;;5.87;0.87;;;10.90;99.90;;;;;;5050285;28;20996;-68
2023/10/31 07:35:28;;;;;;;6.97;1.43;;;10.90;99.90;;;;;;5050354;28;20476;-66
2023/10/31 07:37:56;;;;;;;5.83;0.70;;;11.00;99.90;;;;;;5050014;28;20458;-70
2023/10/31 07:40:24;;;;;;;6.13;0.83;;;11.10;99.90;;;;;;5051977;28;20498;-69
2023/10/31 07:42:52;;;;;;;7.10;0.70;;;11.10;99.90;;;;;;5050467;28;20878;-69
2023/10/31 07:45:20;;;;;;;8.87;0.80;;;11.20;99.90;;;;;;5045539;28;20512;-69
2023/10/31 07:47:48;;;;;;;6.27;0.70;;;11.10;99.90;;;;;;5050350;28;20444;-69
2023/10/31 07:50:17;;;;;;;6.23;0.70;;;11.20;99.90;;;;;;5048971;28;20482;-69
2023/10/31 07:52:46;;;;;;;6.00;0.50;;;11.30;99.90;;;;;;5049709;28;20510;-67
2023/10/31 07:55:14;;;;;;;6.97;0.77;;;11.30;99.90;;;;;;5049406;28;20562;-68
2023/10/31 07:57:42;;;;;;;6.00;0.80;;;11.40;99.90;;;;;;5046881;28;20442;-67
2023/10/31 08:00:11;;;;;;;6.50;0.90;;;11.40;99.90;;;;;;5048365;28;20451;-69
2023/10/31 08:02:39;;;;;;;5.80;0.63;;;11.40;99.90;;;;;;5049705;28;20456;-67
2023/10/31 08:05:09;;;;;;;5.90;0.80;;;11.40;99.90;;;;;;5049329;28;20469;-68
2023/10/31 08:07:39;;;;;;;10.80;1.33;;;11.40;99.90;;;;;;5049978;28;20449;-66
2023/10/31 08:10:07;;;;;;;6.30;0.73;;;11.60;99.90;;;;;;5038599;28;20449;-69
2023/10/31 08:12:35;;;;;;;6.50;0.77;;;11.70;99.90;;;;;;5046729;28;20485;-67
2023/10/31 08:15:04;;;;;;;7.13;0.77;;;11.70;99.90;;;;;;5048903;28;20495;-67
2023/10/31 08:17:32;;;;;;;7.30;1.00;;;11.80;99.90;;;;;;5049630;28;20453;-66
2023/10/31 08:20:00;;;;;;;7.37;0.90;;;11.80;99.90;;;;;;5049657;28;20468;-67
2023/10/31 08:22:28;;;;;;;6.27;0.80;;;11.90;99.90;;;;;;5047915;28;20962;-67
2023/10/31 08:24:57;;;;;;;6.30;0.80;;;12.00;99.90;;;;;;5048317;28;20474;-68
2023/10/31 08:27:25;;;;;;;8.00;1.47;;;12.10;99.90;;;;;;5049449;28;20457;-67
2023/10/31 08:29:53;;;;;;;6.27;0.80;;;12.30;99.90;;;;;;5049580;28;21064;-68
2023/10/31 08:32:22;;;;;;;6.03;0.97;;;12.30;99.90;;;;;;5048809;28;20992;-69
2023/10/31 08:34:50;;;;;;;6.10;0.70;;;12.40;99.90;;;;;;5051104;28;20997;-68
2023/10/31 08:37:18;;;;;;;6.50;0.60;;;12.60;99.90;;;;;;5047027;28;20475;-68
2023/10/31 08:39:46;;;;;;;6.63;1.00;;;12.70;99.90;;;;;;5049266;28;20451;-67
2023/10/31 08:42:15;;;;;;;6.03;0.63;;;12.80;99.90;;;;;;5046853;28;20455;-69
2023/10/31 08:44:43;;;;;;;6.67;0.70;;;12.90;99.90;;;;;;5043756;28;20474;-68
2023/10/31 08:47:12;;;;;;;7.93;1.10;;;13.00;99.90;;;;;;5049134;28;20445;-68
2023/10/31 08:49:40;;;;;;;6.30;0.80;;;13.00;99.90;;;;;;5044022;28;20983;-68
2023/10/31 08:52:08;;;;;;;5.90;0.77;;;12.80;99.90;;;;;;5048556;28;20513;-66
2023/10/31 08:54:36;;;;;;;5.80;0.70;;;12.80;99.90;;;;;;5042157;28;20568;-66
2023/10/31 08:57:04;;;;;;;6.60;0.80;;;12.80;99.90;;;;;;5048104;28;20462;-67
2023/10/31 08:59:34;;;;;;;6.90;0.63;;;12.80;99.90;;;;;;5049080;28;20554;-66
2023/10/31 09:02:02;;;;;;;6.60;0.90;;;12.80;99.90;;;;;;5047579;28;20439;-68
2023/10/31 09:04:30;;;;;;;9.60;0.73;;;12.80;99.90;;;;;;5047762;28;20487;-69
2023/10/31 09:06:58;;;;;;;7.30;0.77;;;12.90;99.90;;;;;;5049129;28;20949;-67
2023/10/31 09:09:26;;;;;;;6.20;0.70;;;13.00;99.90;;;;;;5046447;28;20448;-67
2023/10/31 09:11:54;;;;;;;6.37;0.80;;;13.00;99.90;;;;;;5048583;28;20443;-68
2023/10/31 09:14:22;;;;;;;7.80;0.80;;;13.20;99.90;;;;;;5047556;28;20574;-67
2023/10/31 09:16:51;;;;;;;7.50;0.90;;;13.40;99.90;;;;;;5048441;28;21156;-67
2023/10/31 09:19:19;;;;;;;6.73;0.70;;;13.60;99.90;;;;;;5048925;28;21061;-67
2023/10/31 09:21:47;;;;;;;6.00;0.80;;;13.80;99.90;;;;;;5048836;28;20452;-67
2023/10/31 09:24:15;;;;;;;6.73;1.00;;;13.70;99.90;;;;;;5047477;28;20482;-67
2023/10/31 09:26:44;;;;;;;6.40;1.00;;;13.70;99.90;;;;;;5048382;28;20444;-67
2023/10/31 09:29:12;;;;;;;6.23;0.70;;;13.70;99.90;;;;;;5048332;28;20530;-67
2023/10/31 09:31:56;;;;;;;6.50;0.70;;;14.00;99.90;;;;;;5048460;28;20460;-69
2023/10/31 09:34:24;;;;;;;6.30;0.90;;;14.10;99.90;;;;;;5038483;28;20488;-69
2023/10/31 09:36:52;;;;;;;6.00;0.80;;;14.00;99.90;;;;;;5047467;28;20967;-68
2023/10/31 09:39:21;;;;;;;9.40;1.03;;;14.00;99.90;;;;;;5048201;28;20456;-68
2023/10/31 09:41:49;;;;;;;7.17;1.00;;;14.00;99.90;;;;;;5047194;28;20544;-67
2023/10/31 09:44:21;;;;;;;7.40;1.07;;;13.80;99.90;;;;;;5047175;28;20490;-67
2023/10/31 09:46:49;;;;;;;6.47;1.03;;;13.50;99.90;;;;;;5047673;28;20455;-68
2023/10/31 09:49:19;;;;;;;7.90;0.70;;;13.40;99.90;;;;;;5047410;28;20831;-68
2023/10/31 09:51:48;;;;;;;8.13;1.30;;;13.50;99.90;;;;;;5042933;28;20535;-67
2023/10/31 09:54:18;;;;;;;6.93;0.80;;;13.50;99.90;;;;;;5046251;28;20549;-68
2023/10/31 09:56:46;;;;;;;6.30;1.00;;;13.50;99.90;;;;;;5046008;28;20490;-68
2023/10/31 09:59:16;;;;;;;7.23;0.83;;;13.50;99.90;;;;;;5047223;28;20472;-67
2023/10/31 10:01:45;;;;;;;6.70;0.80;;;13.50;99.90;;;;;;5045233;28;21314;-66
2023/10/31 10:04:13;;;;;;;7.70;0.97;;;13.40;99.90;;;;;;5045591;28;20491;-66
2023/10/31 10:06:51;;;;;;;7.97;1.03;;;13.40;99.90;;;;;;5045992;28;20444;-66
2023/10/31 10:09:19;;;;;;;5.80;0.70;;;13.40;99.90;;;;;;5046551;28;20552;-66
2023/10/31 10:11:47;;;;;;;8.20;1.00;;;13.50;99.90;;;;;;5042851;28;20546;-67
2023/10/31 10:14:17;;;;;;;6.30;0.83;;;13.50;99.90;;;;;;5039886;28;20470;-66
2023/10/31 10:16:45;;;;;;;7.80;0.80;;;13.40;99.90;;;;;;5045229;28;20549;-67
2023/10/31 10:19:19;;;;;;;7.83;1.10;;;13.40;99.90;;;;;;5040256;28;20460;-65
2023/10/31 10:21:53;;;;;;;7.00;1.00;;;13.30;99.90;;;;;;5044550;28;20440;-66
2023/10/31 10:24:22;;;;;;;9.60;1.03;;;13.20;99.90;;;;;;5044210;28;20509;-66
2023/10/31 10:26:50;;;;;;;8.70;0.90;;;13.20;99.90;;;;;;5042904;28;20458;-66
2023/10/31 10:29:18;;;;;;;6.40;1.03;;;13.00;99.90;;;;;;5041822;28;20479;-66
2023/10/31 10:31:46;;;;;;;8.03;1.03;;;13.10;99.90;;;;;;5045162;28;21169;-67
2023/10/31 10:34:16;;;;;;;6.50;0.80;;;13.20;99.90;;;;;;5041608;28;20753;-67
2023/10/31 10:36:48;;;;;;;7.80;1.10;;;13.40;99.90;;;;;;5037162;28;20496;-67
2023/10/31 10:39:20;;;;;;;5.70;0.60;;;13.60;99.90;;;;;;5038643;28;20440;-67
2023/10/31 10:41:55;;;;;;;7.33;0.70;;;13.70;99.90;;;;;;5040111;28;20463;-67
2023/10/31 10:44:33;;;;;;;8.70;0.93;;;13.90;99.90;;;;;;5036151;28;20505;-67
2023/10/31 10:47:05;;;;;;;6.07;0.97;;;14.00;99.90;;;;;;5045729;28;20954;-68
2023/10/31 10:49:36;;;;;;;6.70;0.93;;;14.20;99.90;;;;;;5049455;28;20442;-67
2023/10/31 10:52:18;;;;;;;7.20;1.40;;;14.50;99.90;;;;;;5048493;28;20456;-70
2023/10/31 10:54:54;;;;;;;7.37;1.17;;;14.50;99.90;;;;;;5045078;28;20467;-70
2023/10/31 10:57:30;;;;;;;7.03;1.20;;;14.40;99.90;;;;;;5048771;28;20526;-67
2023/10/31 11:00:03;;;;;;;6.20;0.80;;;14.20;99.90;;;;;;5047055;28;20436;-67
2023/10/31 11:02:33;;;;;;;8.57;0.93;;;14.20;99.90;;;;;;5047146;28;20862;-68
2023/10/31 11:05:02;;;;;;;6.63;0.87;;;14.40;99.90;;;;;;5047396;28;20481;-67
2023/10/31 11:07:31;;;;;;;8.20;1.20;;;14.30;99.90;;;;;;5048806;28;20459;-67
2023/10/31 11:10:02;;;;;;;6.63;0.87;;;14.40;99.90;;;;;;5048876;28;20480;-67
2023/10/31 11:12:31;;;;;;;7.13;1.07;;;14.60;99.90;;;;;;5042634;28;20459;-67
2023/10/31 11:15:00;;;;;;;6.73;0.93;;;14.80;99.90;;;;;;5046883;28;20468;-66
2023/10/31 11:17:30;;;;;;;9.10;1.07;;;14.90;99.90;;;;;;5040127;28;20506;-68
2023/10/31 11:19:59;;;;;;;7.43;1.00;;;14.90;99.90;;;;;;5047766;28;20448;-68
2023/10/31 11:22:38;;;;;;;7.80;1.20;;;15.00;99.90;;;;;;5048447;28;20445;-67
2023/10/31 11:25:08;;;;;;;7.90;1.30;;;15.10;99.90;;;;;;5058389;28;20476;-67
2023/10/31 11:27:43;;;;;;;11.77;1.50;;;15.10;99.90;;;;;;5048228;28;20479;-67
2023/10/31 11:30:22;;;;;;;7.63;1.00;;;15.00;99.90;;;;;;5046871;28;20445;-67
2023/10/31 11:32:52;;;;;;;6.53;0.90;;;14.90;99.90;;;;;;5047194;28;20450;-67
2023/10/31 11:35:22;;;;;;;6.57;0.93;;;14.90;99.90;;;;;;5046018;28;20985;-67
2023/10/31 11:37:50;;;;;;;7.53;1.00;;;14.90;99.90;;;;;;5047401;28;20509;-67
2023/10/31 11:40:22;;;;;;;6.27;0.77;;;14.90;99.90;;;;;;5046440;28;20448;-67
2023/10/31 11:42:54;;;;;;;8.30;1.30;;;14.90;99.90;;;;;;5040501;28;20562;-67
2023/10/31 11:45:30;;;;;;;6.60;0.80;;;14.90;99.90;;;;;;5046188;28;20478;-67
2023/10/31 11:47:58;;;;;;;6.40;0.93;;;15.00;99.90;;;;;;5048214;28;20478;-67
2023/10/31 11:50:26;;;;;;;12.60;1.00;;;15.10;99.90;;;;;;5048605;28;20543;-67
2023/10/31 11:53:05;;;;;;;7.90;0.83;;;15.00;99.90;;;;;;5047508;28;20461;-66
2023/10/31 11:55:37;;;;;;;6.67;0.80;;;15.00;99.90;;;;;;5035317;28;20534;-66
2023/10/31 11:58:19;;;;;;;7.60;0.93;;;14.90;99.90;;;;;;5047669;28;21049;-66
2023/10/31 12:00:48;;;;;;;6.23;0.77;;;14.60;99.90;;;;;;5047634;28;20807;-66
2023/10/31 12:03:18;;;;;;;9.17;1.30;;;14.40;99.90;;;;;;5047176;28;20444;-66
2023/10/31 12:05:53;;;;;;;6.40;0.90;;;14.20;99.90;;;;;;5046593;28;20472;-67
2023/10/31 12:08:29;;;;;;;6.90;0.90;;;14.00;99.90;;;;;;5047784;28;20542;-66
2023/10/31 12:11:10;;;;;;;7.77;1.00;;;13.90;99.90;;;;;;5047645;28;20519;-65
2023/10/31 12:13:39;;;;;;;8.27;1.13;;;13.80;99.90;;;;;;5042426;28;20498;-66
2023/10/31 12:16:09;;;;;;;6.00;0.90;;;13.70;99.90;;;;;;5044937;28;20537;-66
2023/10/31 12:18:38;;;;;;;6.47;0.83;;;13.50;99.90;;;;;;5047042;28;20463;-67
2023/10/31 12:21:08;;;;;;;7.37;0.80;;;13.50;99.90;;;;;;5047979;28;20449;-66
2023/10/31 12:23:36;;;;;;;5.83;0.70;;;13.50;99.90;;;;;;5043867;28;20997;-67
2023/10/31 12:26:06;;;;;;;7.40;1.20;;;13.70;99.90;;;;;;5044090;28;20935;-65
2023/10/31 12:28:34;;;;;;;10.73;1.63;;;14.00;99.90;;;;;;5048307;28;20449;-65
2023/10/31 12:31:03;;;;;;;9.93;1.10;;;14.40;99.90;;;;;;5047417;28;20444;-66
2023/10/31 12:33:31;;;;;;;8.80;0.80;;;14.80;99.90;;;;;;5034175;28;20462;-66
2023/10/31 12:36:00;;;;;;;7.10;1.03;;;15.20;99.90;;;;;;5045250;28;20500;-66
2023/10/31 12:38:29;;;;;;;7.13;1.03;;;15.40;99.90;;;;;;5046313;28;20527;-67
2023/10/31 12:40:59;;;;;;;6.20;0.70;;;15.60;99.90;;;;;;5043603;28;20510;-64
2023/10/31 12:43:29;;;;;;;6.10;0.90;;;15.60;99.90;;;;;;5039188;28;20466;-65
2023/10/31 12:45:57;;;;;;;8.97;1.00;;;15.60;99.90;;;;;;5041360;28;20463;-65
2023/10/31 12:48:26;;;;;;;8.97;1.40;;;15.70;99.90;;;;;;5045034;28;20480;-64
2023/10/31 12:51:08;;;;;;;7.37;1.77;;;15.90;99.90;;;;;;5042585;28;20470;-64
2023/10/31 12:53:36;;;;;;;9.53;1.20;;;15.80;99.90;;;;;;5040751;28;20542;-65
2023/10/31 12:56:04;;;;;;;7.20;1.20;;;15.80;99.90;;;;;;5042874;28;20490;-65
2023/10/31 12:58:34;;;;;;;7.97;1.10;;;15.70;99.90;;;;;;5039589;28;20834;-64